createdAt,value
2019-01-25T00:01:29.194Z,-3.15
2019-01-25T00:03:58.213Z,-3.20
2019-01-25T00:06:27.259Z,-3.47
2019-01-25T00:08:58.224Z,-3.19
2019-01-25T00:11:27.047Z,-3.20
2019-01-25T00:13:55.645Z,-3.27
2019-01-25T00:16:24.377Z,-3.08
2019-01-25T00:18:53.070Z,-3.01
2019-01-25T00:21:21.940Z,-2.98
2019-01-25T00:23:50.758Z,-3.46
2019-01-25T00:26:19.397Z,-3.08
2019-01-25T00:28:48.083Z,-2.97
2019-01-25T00:31:17.387Z,-2.95
2019-01-25T00:33:46.156Z,-3.03
2019-01-25T00:36:15.110Z,-2.97
2019-01-25T00:38:43.522Z,-3.27
2019-01-25T00:41:12.255Z,-3.34
2019-01-25T00:43:40.839Z,-3.13
2019-01-25T00:46:09.479Z,-3.21
2019-01-25T00:48:38.362Z,-3.22
2019-01-25T00:51:07.026Z,-3.21
2019-01-25T00:53:35.625Z,-3.13
2019-01-25T00:56:05.280Z,-3.09
2019-01-25T00:58:33.974Z,-3.09
2019-01-25T01:01:03.745Z,-3.10
2019-01-25T01:03:32.262Z,-3.22
2019-01-25T01:06:01.077Z,-3.13
2019-01-25T01:08:30.828Z,-3.33
2019-01-25T01:10:59.513Z,-3.21
2019-01-25T01:13:28.242Z,-3.09
2019-01-25T01:15:56.930Z,-3.31
2019-01-25T01:18:25.462Z,-3.18
2019-01-25T01:20:53.995Z,-3.16
2019-01-25T01:23:22.853Z,-3.09
2019-01-25T01:25:53.179Z,-3.17
2019-01-25T01:28:21.802Z,-3.25
2019-01-25T01:30:50.473Z,-3.42
2019-01-25T01:33:19.052Z,-3.24
2019-01-25T01:35:47.925Z,-3.26
2019-01-25T01:38:16.612Z,-3.19
2019-01-25T01:40:45.377Z,-3.25
2019-01-25T01:43:13.823Z,-3.19
2019-01-25T01:45:42.398Z,-3.35
2019-01-25T01:48:11.024Z,-3.38
2019-01-25T01:50:39.869Z,-3.34
2019-01-25T01:53:08.564Z,-3.55
2019-01-25T01:55:37.226Z,-3.36
2019-01-25T01:58:05.711Z,-3.20
2019-01-25T02:00:34.502Z,-3.22
2019-01-25T02:03:03.986Z,-3.55
2019-01-25T02:05:32.730Z,-3.30
2019-01-25T02:08:01.340Z,-3.45
2019-01-25T02:10:30.258Z,-3.38
2019-01-25T02:12:58.830Z,-3.21
2019-01-25T02:15:27.844Z,-3.18
2019-01-25T02:17:56.479Z,-3.25
2019-01-25T02:20:30.231Z,-3.35
2019-01-25T02:22:59.039Z,-3.26
2019-01-25T02:25:27.632Z,-3.36
2019-01-25T02:27:56.524Z,-3.23
2019-01-25T02:30:26.643Z,-3.23
2019-01-25T02:32:55.463Z,-3.22
2019-01-25T02:35:24.375Z,-3.20
2019-01-25T02:37:53.141Z,-3.48
2019-01-25T02:40:24.610Z,-3.75
2019-01-25T02:42:53.583Z,-3.64
2019-01-25T02:45:22.263Z,-3.30
2019-01-25T02:47:50.777Z,-3.26
2019-01-25T02:50:20.070Z,-3.27
2019-01-25T02:52:49.015Z,-3.21
2019-01-25T02:55:17.830Z,-3.18
2019-01-25T02:57:46.601Z,-3.46
2019-01-25T03:00:23.182Z,-3.34
2019-01-25T03:02:53.323Z,-3.69
2019-01-25T03:05:22.977Z,-3.45
2019-01-25T03:07:52.221Z,-3.43
2019-01-25T03:10:28.590Z,-3.55
2019-01-25T03:12:53.283Z,-3.37
2019-01-25T03:15:25.215Z,-3.27
2019-01-25T03:17:54.199Z,-3.23
2019-01-25T03:20:24.135Z,-3.45
2019-01-25T03:22:53.047Z,-3.26
2019-01-25T03:25:24.945Z,-3.23
2019-01-25T03:27:53.617Z,-3.42
2019-01-25T03:30:23.645Z,-3.69
2019-01-25T03:32:52.377Z,-3.57
2019-01-25T03:35:23.299Z,-3.43
2019-01-25T03:37:52.593Z,-3.30
2019-01-25T03:40:24.245Z,-3.56
2019-01-25T03:42:53.023Z,-3.54
2019-01-25T03:45:22.711Z,-3.36
2019-01-25T03:47:51.259Z,-3.26
2019-01-25T03:50:23.963Z,-3.28
2019-01-25T03:52:52.467Z,-3.51
2019-01-25T03:55:21.339Z,-3.36
2019-01-25T03:57:49.957Z,-3.47
2019-01-25T04:00:21.026Z,-3.60
2019-01-25T04:02:50.108Z,-3.49
2019-01-25T04:05:19.026Z,-3.43
2019-01-25T04:07:48.395Z,-3.34
2019-01-25T04:10:19.962Z,-3.31
2019-01-25T04:12:48.846Z,-3.31
2019-01-25T04:15:21.424Z,-3.25
2019-01-25T04:17:50.182Z,-3.12
2019-01-25T04:20:19.091Z,-3.26
2019-01-25T04:22:48.072Z,-3.19
2019-01-25T04:25:19.501Z,-3.60
2019-01-25T04:27:48.139Z,-3.32
2019-01-25T04:30:20.606Z,-3.35
2019-01-25T04:32:49.311Z,-3.25
2019-01-25T04:35:17.983Z,-3.44
2019-01-25T04:37:46.926Z,-3.24
2019-01-25T04:40:16.345Z,-3.13
2019-01-25T04:42:45.118Z,-3.12
2019-01-25T04:45:16.458Z,-3.18
2019-01-25T04:47:45.216Z,-3.73
2019-01-25T04:50:19.227Z,-3.63
2019-01-25T04:52:48.456Z,-3.58
2019-01-25T04:55:23.409Z,-3.33
2019-01-25T04:57:52.152Z,-3.97
2019-01-25T05:00:21.946Z,-3.42
2019-01-25T05:02:54.677Z,-3.35
2019-01-25T05:05:23.766Z,-3.40
2019-01-25T05:08:02.085Z,-3.45
2019-01-25T05:10:30.594Z,-3.43
2019-01-25T05:12:59.417Z,-3.44
2019-01-25T05:15:28.437Z,-3.43
2019-01-25T05:17:56.998Z,-3.41
2019-01-25T05:20:26.663Z,-3.34
2019-01-25T05:23:00.495Z,-3.37
2019-01-25T05:25:29.287Z,-3.32
2019-01-25T05:28:09.813Z,-3.35
2019-01-25T05:30:38.688Z,-3.46
2019-01-25T05:33:07.273Z,-3.49
2019-01-25T05:35:36.507Z,-3.95
2019-01-25T05:38:05.174Z,-3.45
2019-01-25T05:40:33.840Z,-3.35
2019-01-25T05:43:02.333Z,-3.34
2019-01-25T05:45:30.822Z,-3.55
2019-01-25T05:47:59.414Z,-3.98
2019-01-25T05:50:27.978Z,-3.65
2019-01-25T05:52:56.602Z,-3.44
2019-01-25T05:55:25.469Z,-3.28
2019-01-25T05:58:00.554Z,-3.26
2019-01-25T06:00:32.690Z,-3.24
2019-01-25T06:03:13.815Z,-3.20
2019-01-25T06:05:42.606Z,-3.30
2019-01-25T06:08:32.747Z,-3.20
2019-01-25T06:11:10.350Z,-3.55
2019-01-25T06:13:40.722Z,-3.34
2019-01-25T06:16:09.407Z,-3.36
2019-01-25T06:18:38.044Z,-3.31
2019-01-25T06:21:06.849Z,-3.41
2019-01-25T06:23:35.419Z,-3.22
2019-01-25T06:26:05.677Z,-3.17
2019-01-25T06:28:34.238Z,-3.24
2019-01-25T06:31:04.596Z,-3.29
2019-01-25T06:33:33.358Z,-3.21
2019-01-25T06:36:02.497Z,-3.24
2019-01-25T06:38:31.039Z,-3.32
2019-01-25T06:40:59.579Z,-3.26
2019-01-25T06:43:28.253Z,-3.22
2019-01-25T06:45:57.044Z,-3.38
2019-01-25T06:48:25.730Z,-3.42
2019-01-25T06:50:54.445Z,-3.30
2019-01-25T06:53:23.077Z,-3.35
2019-01-25T06:55:51.624Z,-3.35
2019-01-25T06:58:29.024Z,-3.35
2019-01-25T07:01:17.084Z,-3.25
2019-01-25T07:03:45.728Z,-3.35
2019-01-25T07:06:14.353Z,-3.35
2019-01-25T07:08:43.060Z,-3.32
2019-01-25T07:11:11.577Z,-3.25
2019-01-25T07:13:40.063Z,-3.31
2019-01-25T07:16:08.696Z,-3.33
2019-01-25T07:18:37.402Z,-3.29
2019-01-25T07:21:06.551Z,-3.24
2019-01-25T07:23:35.267Z,-3.19
2019-01-25T07:26:03.960Z,-3.27
2019-01-25T07:28:32.504Z,-3.58
2019-01-25T07:31:01.057Z,-3.33
2019-01-25T07:33:30.133Z,-3.31
2019-01-25T07:35:58.911Z,-3.37
2019-01-25T07:38:27.989Z,-3.27
2019-01-25T07:40:56.537Z,-3.16
2019-01-25T07:43:25.121Z,-3.34
2019-01-25T07:45:53.663Z,-3.24
2019-01-25T07:48:22.660Z,-3.17
2019-01-25T07:50:51.494Z,-3.20
2019-01-25T07:53:22.138Z,-3.23
2019-01-25T07:55:50.677Z,-3.35
2019-01-25T07:58:19.430Z,-3.21
2019-01-25T08:00:48.190Z,-3.15
2019-01-25T08:03:16.786Z,-3.44
2019-01-25T08:05:45.684Z,-3.18
2019-01-25T08:08:14.388Z,-3.19
2019-01-25T08:10:43.077Z,-3.48
2019-01-25T08:13:11.623Z,-3.19
2019-01-25T08:15:41.619Z,-3.08
2019-01-25T08:18:10.290Z,-3.10
2019-01-25T08:20:39.038Z,-3.08
2019-01-25T08:23:07.677Z,-2.98
2019-01-25T08:25:36.299Z,-3.04
2019-01-25T08:28:04.897Z,-2.97
2019-01-25T08:30:33.605Z,-3.05
2019-01-25T08:33:02.224Z,-3.09
2019-01-25T08:35:30.941Z,-3.05
2019-01-25T08:37:59.827Z,-2.95
2019-01-25T08:40:28.576Z,-2.81
2019-01-25T08:42:57.245Z,-2.77
2019-01-25T08:45:25.829Z,-3.19
2019-01-25T08:47:54.609Z,-2.99
2019-01-25T08:50:23.421Z,-2.79
2019-01-25T08:52:52.400Z,-2.98
2019-01-25T08:55:21.432Z,-2.87
2019-01-25T08:57:51.017Z,-2.81
2019-01-25T09:00:22.036Z,-2.77
2019-01-25T09:02:50.680Z,-2.68
2019-01-25T09:05:20.018Z,-2.53
2019-01-25T09:07:48.851Z,-2.86
2019-01-25T09:10:18.721Z,-2.65
2019-01-25T09:12:47.294Z,-2.59
2019-01-25T09:15:22.811Z,-2.52
2019-01-25T09:17:51.542Z,-2.65
2019-01-25T09:20:20.830Z,-2.58
2019-01-25T09:22:49.445Z,-2.56
2019-01-25T09:25:18.468Z,-2.34
2019-01-25T09:27:47.208Z,-2.29
2019-01-25T09:30:18.895Z,-2.35
2019-01-25T09:32:48.182Z,-2.22
2019-01-25T09:35:17.546Z,-2.45
2019-01-25T09:37:46.772Z,-2.22
2019-01-25T09:40:20.117Z,-2.12
2019-01-25T09:42:48.720Z,-2.53
2019-01-25T09:45:19.135Z,-2.17
2019-01-25T09:47:47.889Z,-2.23
2019-01-25T09:50:18.045Z,-2.38
2019-01-25T09:52:46.769Z,-2.29
2019-01-25T09:55:18.549Z,-2.21
2019-01-25T09:57:47.792Z,-2.22
2019-01-25T10:00:43.827Z,-2.08
2019-01-25T10:03:12.882Z,-2.21
2019-01-25T10:05:41.701Z,-2.49
2019-01-25T10:08:10.407Z,-2.15
2019-01-25T10:10:38.859Z,-2.02
2019-01-25T10:13:07.504Z,-2.22
2019-01-25T10:15:36.061Z,-2.18
2019-01-25T10:18:04.937Z,-2.13
2019-01-25T10:20:33.689Z,-1.95
2019-01-25T10:23:02.358Z,-2.12
2019-01-25T10:25:30.886Z,-2.62
2019-01-25T10:27:59.497Z,-2.29
2019-01-25T10:30:28.511Z,-2.20
2019-01-25T10:32:57.342Z,-2.34
2019-01-25T10:35:26.003Z,-2.13
2019-01-25T10:37:55.211Z,-2.10
2019-01-25T10:40:23.763Z,-2.21
2019-01-25T10:42:53.704Z,-2.20
2019-01-25T10:45:29.108Z,-1.97
2019-01-25T10:47:57.763Z,-2.14
2019-01-25T10:50:26.328Z,-2.06
2019-01-25T10:52:54.949Z,-2.12
2019-01-25T10:55:23.506Z,-1.98
2019-01-25T10:57:52.334Z,-1.94
2019-01-25T11:00:21.069Z,-1.99
2019-01-25T11:02:49.704Z,-1.75
2019-01-25T11:05:21.272Z,-1.58
2019-01-25T11:07:50.015Z,-1.61
2019-01-25T11:10:18.646Z,-1.50
2019-01-25T11:12:47.217Z,-1.91
2019-01-25T11:15:21.348Z,-1.77
2019-01-25T11:17:50.204Z,-1.96
2019-01-25T11:20:20.884Z,-1.59
2019-01-25T11:22:49.461Z,-1.72
2019-01-25T11:25:28.695Z,-1.86
2019-01-25T11:27:57.256Z,-1.95
2019-01-25T11:30:26.295Z,-2.25
2019-01-25T11:32:54.814Z,-1.98
2019-01-25T11:35:23.208Z,-1.97
2019-01-25T11:37:52.423Z,-1.98
2019-01-25T11:40:33.988Z,-1.95
2019-01-25T11:43:08.601Z,-2.06
2019-01-25T11:45:33.224Z,-1.80
2019-01-25T11:48:02.550Z,-1.62
2019-01-25T11:50:30.988Z,-1.88
2019-01-25T11:52:59.541Z,-2.25
2019-01-25T11:55:28.006Z,-1.95
2019-01-25T11:57:56.520Z,-2.08
2019-01-25T12:00:27.371Z,-2.12
2019-01-25T12:02:55.969Z,-2.17
2019-01-25T12:05:24.801Z,-2.43
2019-01-25T12:07:53.969Z,-2.14
2019-01-25T12:10:25.704Z,-2.33
2019-01-25T12:12:54.188Z,-2.07
2019-01-25T12:15:23.369Z,-2.13
2019-01-25T12:17:51.841Z,-2.20
2019-01-25T12:20:28.609Z,-2.31
2019-01-25T12:22:57.281Z,-2.17
2019-01-25T12:25:25.730Z,-3.28
2019-01-25T12:27:54.660Z,-2.63
2019-01-25T12:30:29.692Z,-2.35
2019-01-25T12:32:58.102Z,-2.20
2019-01-25T12:35:28.389Z,-2.09
2019-01-25T12:37:57.072Z,-1.98
2019-01-25T12:40:25.979Z,-1.88
2019-01-25T12:42:54.668Z,-2.05
2019-01-25T12:45:25.446Z,-1.86
2019-01-25T12:47:54.017Z,-1.76
2019-01-25T12:50:33.558Z,-1.77
2019-01-25T12:53:03.806Z,-1.61
2019-01-25T12:55:32.989Z,-1.66
2019-01-25T12:58:01.759Z,-1.62
2019-01-25T13:00:30.332Z,-1.90
2019-01-25T13:02:58.952Z,-1.62
2019-01-25T13:05:28.123Z,-1.80
2019-01-25T13:07:56.861Z,-1.75
2019-01-25T13:10:25.823Z,-1.70
2019-01-25T13:12:54.458Z,-1.80
2019-01-25T13:15:24.433Z,-1.46
2019-01-25T13:17:54.058Z,-1.31
2019-01-25T13:20:25.231Z,-1.31
2019-01-25T13:22:54.481Z,-1.28
2019-01-25T13:25:22.960Z,-1.31
2019-01-25T13:27:51.682Z,-1.33
2019-01-25T13:30:23.855Z,-1.17
2019-01-25T13:32:52.736Z,-1.48
2019-01-25T13:35:21.392Z,-1.45
2019-01-25T13:37:50.011Z,-1.46
2019-01-25T13:40:20.548Z,-1.48
2019-01-25T13:42:49.446Z,-1.49
2019-01-25T13:45:20.410Z,-1.52
2019-01-25T13:47:49.335Z,-1.50
2019-01-25T13:50:21.316Z,-1.41
2019-01-25T13:52:49.890Z,-1.28
2019-01-25T13:55:18.738Z,-1.85
2019-01-25T13:57:47.276Z,-1.58
2019-01-25T14:00:30.311Z,-1.52
2019-01-25T14:02:58.932Z,-1.25
2019-01-25T14:05:27.474Z,-1.38
2019-01-25T14:07:56.205Z,-1.31
2019-01-25T14:10:33.389Z,-1.37
2019-01-25T14:13:01.947Z,-1.43
2019-01-25T14:15:30.942Z,-1.71
2019-01-25T14:17:59.644Z,-1.60
2019-01-25T14:20:30.409Z,-1.48
2019-01-25T14:22:59.235Z,-1.52
2019-01-25T14:25:27.913Z,-1.54
2019-01-25T14:27:56.433Z,-1.64
2019-01-25T14:30:50.682Z,-1.70
2019-01-25T14:33:19.385Z,-1.65
2019-01-25T14:35:47.961Z,-1.85
2019-01-25T14:38:17.408Z,-1.75
2019-01-25T14:40:46.148Z,-1.79
2019-01-25T14:43:14.533Z,-1.87
2019-01-25T14:45:42.944Z,-1.89
2019-01-25T14:48:11.464Z,-1.87
2019-01-25T14:50:39.942Z,-1.74
2019-01-25T14:53:08.940Z,-1.69
2019-01-25T14:55:37.509Z,-1.62
2019-01-25T14:58:06.903Z,-1.97
2019-01-25T15:00:35.565Z,-1.86
2019-01-25T15:03:05.024Z,-2.03
2019-01-25T15:05:33.593Z,-2.02
2019-01-25T15:08:02.504Z,-1.93
2019-01-25T15:10:31.263Z,-1.79
2019-01-25T15:12:59.967Z,-1.79
2019-01-25T15:15:28.636Z,-1.79
2019-01-25T15:17:57.162Z,-1.71
2019-01-25T15:20:28.555Z,-1.86
2019-01-25T15:22:57.314Z,-1.93
2019-01-25T15:25:28.115Z,-1.81
2019-01-25T15:27:56.646Z,-1.88
2019-01-25T15:30:28.610Z,-2.25
2019-01-25T15:32:57.991Z,-2.06
2019-01-25T15:35:27.734Z,-2.08
2019-01-25T15:37:56.383Z,-2.18
2019-01-25T15:40:25.196Z,-2.19
2019-01-25T15:42:54.937Z,-2.08
2019-01-25T15:45:23.542Z,-2.20
2019-01-25T15:47:52.130Z,-2.09
2019-01-25T15:50:26.564Z,-2.16
2019-01-25T15:52:55.111Z,-2.17
2019-01-25T15:55:24.039Z,-2.19
2019-01-25T15:57:53.953Z,-2.37
2019-01-25T16:00:25.103Z,-2.43
2019-01-25T16:02:54.965Z,-2.32
2019-01-25T16:05:24.424Z,-2.18
2019-01-25T16:07:53.166Z,-2.20
2019-01-25T16:10:22.151Z,-2.16
2019-01-25T16:12:51.359Z,-2.17
2019-01-25T16:15:32.929Z,-2.35
2019-01-25T16:18:01.504Z,-2.19
2019-01-25T16:20:30.317Z,-2.23
2019-01-25T16:22:58.975Z,-2.24
2019-01-25T16:25:30.610Z,-2.43
2019-01-25T16:28:00.361Z,-2.34
2019-01-25T16:30:32.076Z,-2.23
2019-01-25T16:33:00.635Z,-2.41
2019-01-25T16:35:29.164Z,-2.31
2019-01-25T16:37:57.909Z,-2.19
2019-01-25T16:40:27.617Z,-2.40
2019-01-25T16:42:56.177Z,-2.28
2019-01-25T16:45:37.432Z,-2.27
2019-01-25T16:48:06.418Z,-2.51
2019-01-25T16:50:35.756Z,-2.42
2019-01-25T16:53:05.816Z,-2.58
2019-01-25T16:55:35.713Z,-2.52
2019-01-25T16:58:05.207Z,-2.50
2019-01-25T17:00:38.606Z,-2.43
2019-01-25T17:03:07.269Z,-2.45
2019-01-25T17:05:36.114Z,-2.60
2019-01-25T17:08:06.778Z,-2.62
2019-01-25T17:10:35.664Z,-2.60
2019-01-25T17:13:05.137Z,-2.96
2019-01-25T17:15:34.006Z,-2.77
2019-01-25T17:18:02.446Z,-2.98
2019-01-25T17:20:31.174Z,-3.06
2019-01-25T17:22:59.619Z,-2.92
2019-01-25T17:25:28.152Z,-2.87
2019-01-25T17:27:56.741Z,-2.76
2019-01-25T17:30:31.574Z,-2.93
2019-01-25T17:33:00.851Z,-2.91
2019-01-25T17:35:30.922Z,-3.02
2019-01-25T17:37:59.662Z,-2.97
2019-01-25T17:40:46.160Z,-3.06
2019-01-25T17:43:09.190Z,-3.05
2019-01-25T17:45:37.766Z,-2.96
2019-01-25T17:48:06.947Z,-3.04
2019-01-25T17:50:35.712Z,-2.96
2019-01-25T17:53:04.400Z,-3.11
2019-01-25T17:55:33.253Z,-3.03
2019-01-25T17:58:08.272Z,-2.99
2019-01-25T18:00:36.841Z,-2.98
2019-01-25T18:03:05.275Z,-2.96
2019-01-25T18:05:34.775Z,-2.93
2019-01-25T18:08:03.588Z,-3.03
2019-01-25T18:10:32.899Z,-3.00
2019-01-25T18:13:01.384Z,-2.95
2019-01-25T18:15:29.899Z,-2.95
2019-01-25T18:17:58.742Z,-2.83
2019-01-25T18:20:27.094Z,-3.00
2019-01-25T18:22:55.608Z,-2.82
2019-01-25T18:25:36.980Z,-2.87
2019-01-25T18:28:08.712Z,-2.83
2019-01-25T18:30:45.864Z,-2.84
2019-01-25T18:33:15.408Z,-2.83
2019-01-25T18:35:43.685Z,-2.81
2019-01-25T18:38:12.211Z,-2.74
2019-01-25T18:40:40.601Z,-2.72
2019-01-25T18:43:09.103Z,-2.61
2019-01-25T18:45:37.637Z,-2.66
2019-01-25T18:48:06.658Z,-2.65
2019-01-25T18:50:35.413Z,-2.61
2019-01-25T18:53:04.134Z,-2.45
2019-01-25T18:55:32.497Z,-2.36
2019-01-25T18:58:01.284Z,-2.43
2019-01-25T19:00:30.677Z,-2.32
2019-01-25T19:02:59.260Z,-2.39
2019-01-25T19:05:28.284Z,-2.40
2019-01-25T19:07:57.624Z,-2.13
2019-01-25T19:10:26.978Z,-2.12
2019-01-25T19:12:55.827Z,-2.20
2019-01-25T19:15:27.467Z,-2.15
2019-01-25T19:17:55.977Z,-2.25
2019-01-25T19:20:24.854Z,-2.20
2019-01-25T19:22:53.492Z,-2.27
2019-01-25T19:25:23.062Z,-2.25
2019-01-25T19:27:51.760Z,-2.26
2019-01-25T19:30:27.960Z,-2.15
2019-01-25T19:32:57.260Z,-2.03
2019-01-25T19:35:26.437Z,-2.13
2019-01-25T19:37:55.940Z,-2.11
2019-01-25T19:40:26.718Z,-2.11
2019-01-25T19:42:55.342Z,-1.90
2019-01-25T19:45:25.263Z,-1.92
2019-01-25T19:47:54.596Z,-1.80
2019-01-25T19:50:23.564Z,-1.76
2019-01-25T19:52:52.274Z,-1.64
2019-01-25T19:55:23.733Z,-1.62
2019-01-25T19:57:53.495Z,-1.41
2019-01-25T20:00:28.793Z,-1.47
2019-01-25T20:02:57.565Z,-1.30
2019-01-25T20:05:27.930Z,-1.10
2019-01-25T20:07:56.664Z,-1.07
2019-01-25T20:10:25.531Z,-1.24
2019-01-25T20:12:54.622Z,-1.15
2019-01-25T20:15:24.671Z,-1.10
2019-01-25T20:17:53.831Z,-1.10
2019-01-25T20:20:26.049Z,-1.12
2019-01-25T20:22:55.820Z,-0.98
2019-01-25T20:25:25.003Z,-0.81
2019-01-25T20:27:54.172Z,-0.74
2019-01-25T20:30:26.554Z,-0.63
2019-01-25T20:32:55.562Z,-0.66
2019-01-25T20:35:30.351Z,-0.69
2019-01-25T20:37:59.144Z,-0.62
2019-01-25T20:40:28.006Z,-0.72
2019-01-25T20:42:56.749Z,-0.52
2019-01-25T20:45:30.432Z,-0.41
2019-01-25T20:47:59.109Z,-0.39
2019-01-25T20:50:29.460Z,-0.36
2019-01-25T20:52:58.201Z,-0.28
2019-01-25T20:55:27.031Z,-0.28
2019-01-25T20:57:57.919Z,-0.36
2019-01-25T21:00:30.492Z,-0.20
2019-01-25T21:02:59.003Z,-0.13
2019-01-25T21:05:27.817Z,-0.14
2019-01-25T21:07:56.454Z,-0.16
2019-01-25T21:10:25.421Z,-0.10
2019-01-25T21:12:54.240Z,-0.06
2019-01-25T21:15:24.036Z,-0.06
2019-01-25T21:17:53.105Z,0.04
2019-01-25T21:20:31.853Z,0.12
2019-01-25T21:23:01.032Z,0.01
2019-01-25T21:25:29.922Z,0.16
2019-01-25T21:27:58.766Z,0.19
2019-01-25T21:30:29.989Z,0.17
2019-01-25T21:32:58.657Z,0.16
2019-01-25T21:35:27.218Z,0.14
2019-01-25T21:37:55.807Z,0.12
2019-01-25T21:40:27.416Z,0.28
2019-01-25T21:42:55.936Z,0.39
2019-01-25T21:45:42.890Z,0.32
2019-01-25T21:48:14.089Z,0.36
2019-01-25T21:50:44.728Z,0.32
2019-01-25T21:53:13.338Z,0.28
2019-01-25T21:55:41.920Z,0.31
2019-01-25T21:58:10.533Z,0.40
2019-01-25T22:00:39.097Z,0.36
2019-01-25T22:03:07.863Z,0.32
2019-01-25T22:05:36.621Z,0.38
2019-01-25T22:08:05.947Z,0.43
2019-01-25T22:10:38.787Z,0.48
2019-01-25T22:13:07.884Z,0.45
2019-01-25T22:15:36.477Z,0.41
2019-01-25T22:18:05.591Z,0.49
2019-01-25T22:20:34.487Z,0.45
2019-01-25T22:23:03.399Z,0.45
2019-01-25T22:25:32.024Z,0.44
2019-01-25T22:28:00.826Z,0.47
2019-01-25T22:30:29.461Z,0.41
2019-01-25T22:32:58.383Z,0.45
2019-01-25T22:35:28.612Z,0.52
2019-01-25T22:37:57.265Z,0.58
2019-01-25T22:40:29.011Z,0.48
2019-01-25T22:43:00.623Z,0.60
2019-01-25T22:45:31.047Z,0.63
2019-01-25T22:48:01.842Z,0.56
2019-01-25T22:50:33.669Z,0.66
2019-01-25T22:53:02.342Z,0.61
2019-01-25T22:55:30.942Z,0.58
2019-01-25T22:57:59.475Z,0.63
2019-01-25T23:01:04.837Z,0.64
2019-01-25T23:04:18.098Z,0.81
2019-01-25T23:07:18.491Z,0.78
2019-01-25T23:09:53.254Z,0.74
2019-01-25T23:12:23.314Z,0.77
2019-01-25T23:14:51.902Z,0.81
2019-01-25T23:17:20.470Z,0.80
2019-01-25T23:19:48.994Z,0.91
2019-01-25T23:22:17.659Z,0.92
2019-01-25T23:24:46.131Z,0.97
2019-01-25T23:27:14.730Z,1.05
2019-01-25T23:29:43.199Z,1.08
2019-01-25T23:32:12.144Z,1.16
2019-01-25T23:34:40.657Z,1.10
2019-01-25T23:37:09.116Z,1.17
2019-01-25T23:39:37.672Z,1.19
2019-01-25T23:42:06.524Z,1.15
2019-01-25T23:44:35.255Z,1.26
2019-01-25T23:47:04.284Z,1.20
2019-01-25T23:49:32.935Z,1.19
2019-01-25T23:52:01.470Z,1.28
2019-01-25T23:54:30.316Z,1.30
2019-01-25T23:56:58.890Z,1.28
2019-01-25T23:59:27.514Z,1.36
